Kezdőlap
METAR-TAF:

METAR-TAF

Repülőterek :

Vinnicja, Ukrajna

földrajzi szélesség: 49-14-23N, földrajzi hosszúság: 028-36-50E, magasság: 974 m

Jelenlegi meteorológiai megfigyelések

A jelentés 17 perccel ezelõtt készült, 06:30 UTC
Délkeleti szél 10 kt
Hőmérséklet 13°C
Páratartalom 41%
Légköri nyomás 1028 hPa
Látótávolság 10 km, vagy több
felhőtlen 1500 m magasságban, és nincs gomolyfelhõ

METAR: UKWW 240630Z 13005MPS CAVOK 13/00 Q1028 R13/0///65 NOSIG

Idő: 09:47 (06:47 UTC)

Előrejelzés

A jelentés 1 órával és 37 perccel ezelõtt készült, 05:10 UTC
Az előrejelzés 24-én 06 óra UTC és 24-én 15 óra UTC között érvényes
Keleti szél 10 kt széllökések: 19 kt
Látótávolság 10 km, vagy több
Szórványos felhőzet 4000 lábon

TAF: UKWW 240510Z 2406/2415 10005G10MPS 9999 SCT040

Meteorológiai megfigyelések és előrejelzések több, mint 4000 repülőtéren (METAR és TAF jelentéseket).

A térképen piros és sárga pontok jelzik az elérhető meteorológiai állomásokat.

Mozgassa az egeret a pont fölött, hogy megjelenjen az állomás neve.

Azután kattintson az időjárási megfigyelések és előrejelzések megtekintéséhez.

A térkép megváltoztatása: kattintson a fekete keresztel jelölt zöld gombra ráközelítéshez, a vonallal jelölt zöld gombra távolításhoz, vagy a zöld nyilakra a szomszédos térképek eléréséhez.


METAR-TAF: